KTNU

Newton Municipal-Earl Johnson Field Airport

Newton, Iowa, USA
METAR KTNU 151855Z AUTO 33008KT 10SM CLR M15/M19 A3010 RMK AO2
Observed Flight Rules
Feb-15 @ 18:55 UTC (13 minutes ago) Visual Flight Rules
Wind Visibility Clouds
330° at 8 knots 10 miles
  • Clear skies
Temperatures Readings
Current -15°C / 5°F
Dewpoint -19°C / -2°F
Humidity 72%
Altimeter 30.1" Hg
Pressure 1019.32 hPa
Elevation 290
METAR KTNU 151855Z AUTO 33008KT 10SM CLR M15/M19 A3010 RMK AO2
Observed Flight Rules
Feb-15 @ 18:55 UTC
(13 minutes ago)
VFR
Wind Visibility
330° at 8 knots 10 miles
Clouds
  • Clear skies
Temperature Dewpoint
-15°C / 5°F -19°C / -2°F
Humidity Altimeter Pressure
72% 30.1" Hg 1019.32 hPa